aviador You're here:

PAMY Decoded Metar

MEKORYUK in AK, USA
Report Time2017-07-23 04:56:00
UTC Time2017-07-23 06:47:10
Flight Rules Old
Wind290° at 08 kt
W.Decomp.*RWY 23: 5.5 kt HW 5.9 kt RCW
W.Rank290° ranks 9
Current wind is below 290° avg. (10.7)
Visibility9999 m
Phenomena:N/A
Clouds:N/A
Expected CloudBase > 400 ft AGL from Temp-Dew spread
CeilingNone
Temp11°C (ISA -4)
Dew Point10°C (94% RH)
AAT8.2°C
QNH1018 hPa
Density Alt-430 ft
Elevation43 ft
Report Wrong Elevation
Raw Report
PAMY 230456Z AUTO 29008KT 10SM CLR 11/10 A3005 RMK AO2 SLP179
T01110100=

Extra information for PAMY:More info

Metar Taf Metar & Taf Last 4 Metars F.Rules Stats Wind Profile Meteogram Temp Stats Airport Information Weather charts Add Link Nearby VenuesMetar ALERT Operation Metar Decoded Social comments

AIRNAV info for PAMY